sensor_id;sensor_type;location;lat;lon;timestamp;temperature;humidity
20446;DHT22;10382;49.140;9.234;2024-01-10T00:00:23;-1.70;92.10
20446;DHT22;10382;49.140;9.234;2024-01-10T00:02:51;-1.60;92.20
20446;DHT22;10382;49.140;9.234;2024-01-10T00:05:18;-1.50;92.10
20446;DHT22;10382;49.140;9.234;2024-01-10T00:07:45;-1.40;92.00
20446;DHT22;10382;49.140;9.234;2024-01-10T00:10:12;-1.40;91.90
20446;DHT22;10382;49.140;9.234;2024-01-10T00:12:38;-1.40;91.70
20446;DHT22;10382;49.140;9.234;2024-01-10T00:15:06;-1.70;91.80
20446;DHT22;10382;49.140;9.234;2024-01-10T00:17:33;-1.70;92.50
20446;DHT22;10382;49.140;9.234;2024-01-10T00:20:01;-1.90;92.60
20446;DHT22;10382;49.140;9.234;2024-01-10T00:22:28;-1.90;93.00
20446;DHT22;10382;49.140;9.234;2024-01-10T00:24:55;-1.90;93.20
20446;DHT22;10382;49.140;9.234;2024-01-10T00:27:22;-1.90;93.50
20446;DHT22;10382;49.140;9.234;2024-01-10T00:29:49;-1.70;93.60
20446;DHT22;10382;49.140;9.234;2024-01-10T00:32:17;-1.70;93.50
20446;DHT22;10382;49.140;9.234;2024-01-10T00:34:44;-1.60;93.60
20446;DHT22;10382;49.140;9.234;2024-01-10T00:37:12;-1.50;93.30
20446;DHT22;10382;49.140;9.234;2024-01-10T00:39:39;-1.60;93.20
20446;DHT22;10382;49.140;9.234;2024-01-10T00:42:05;-1.60;93.70
20446;DHT22;10382;49.140;9.234;2024-01-10T00:44:32;-1.70;93.60
20446;DHT22;10382;49.140;9.234;2024-01-10T00:46:59;-1.80;93.90
20446;DHT22;10382;49.140;9.234;2024-01-10T00:49:26;-1.70;94.20
20446;DHT22;10382;49.140;9.234;2024-01-10T00:51:53;-1.70;94.20
20446;DHT22;10382;49.140;9.234;2024-01-10T00:54:21;-1.70;94.70
20446;DHT22;10382;49.140;9.234;2024-01-10T00:56:48;-1.70;94.50
20446;DHT22;10382;49.140;9.234;2024-01-10T00:59:16;-1.60;94.50
20446;DHT22;10382;49.140;9.234;2024-01-10T01:01:42;-1.60;94.30
20446;DHT22;10382;49.140;9.234;2024-01-10T01:04:09;-1.60;94.30
20446;DHT22;10382;49.140;9.234;2024-01-10T01:06:36;-1.50;94.10
20446;DHT22;10382;49.140;9.234;2024-01-10T01:09:03;-1.50;94.10
20446;DHT22;10382;49.140;9.234;2024-01-10T01:11:31;-1.60;94.30
20446;DHT22;10382;49.140;9.234;2024-01-10T01:13:58;-1.60;94.50
20446;DHT22;10382;49.140;9.234;2024-01-10T01:16:25;-1.70;94.60
20446;DHT22;10382;49.140;9.234;2024-01-10T01:18:52;-1.80;94.70
20446;DHT22;10382;49.140;9.234;2024-01-10T01:21:18;-1.80;94.90
20446;DHT22;10382;49.140;9.234;2024-01-10T01:23:45;-1.80;95.00
20446;DHT22;10382;49.140;9.234;2024-01-10T01:26:12;-1.70;95.10
20446;DHT22;10382;49.140;9.234;2024-01-10T01:28:41;-1.60;94.80
20446;DHT22;10382;49.140;9.234;2024-01-10T01:31:08;-1.60;94.60
20446;DHT22;10382;49.140;9.234;2024-01-10T01:33:34;-1.50;94.60
20446;DHT22;10382;49.140;9.234;2024-01-10T01:36:01;-1.50;94.20
20446;DHT22;10382;49.140;9.234;2024-01-10T01:38:29;-1.50;94.30
20446;DHT22;10382;49.140;9.234;2024-01-10T01:40:56;-1.70;94.40
20446;DHT22;10382;49.140;9.234;2024-01-10T01:43:24;-1.80;94.90
20446;DHT22;10382;49.140;9.234;2024-01-10T01:45:53;-1.90;95.30
20446;DHT22;10382;49.140;9.234;2024-01-10T01:48:21;-1.80;95.00
20446;DHT22;10382;49.140;9.234;2024-01-10T01:50:52;-1.90;95.60
20446;DHT22;10382;49.140;9.234;2024-01-10T01:53:21;-2.00;95.50
20446;DHT22;10382;49.140;9.234;2024-01-10T01:55:49;-1.90;96.00
20446;DHT22;10382;49.140;9.234;2024-01-10T01:58:16;-1.90;95.80
20446;DHT22;10382;49.140;9.234;2024-01-10T02:00:44;-1.80;95.90
20446;DHT22;10382;49.140;9.234;2024-01-10T02:03:12;-1.80;95.60
20446;DHT22;10382;49.140;9.234;2024-01-10T02:05:39;-2.00;96.00
20446;DHT22;10382;49.140;9.234;2024-01-10T02:08:06;-2.10;96.60
20446;DHT22;10382;49.140;9.234;2024-01-10T02:10:33;-2.20;97.30
20446;DHT22;10382;49.140;9.234;2024-01-10T02:13:00;-2.30;97.70
20446;DHT22;10382;49.140;9.234;2024-01-10T02:15:28;-2.40;98.40
20446;DHT22;10382;49.140;9.234;2024-01-10T02:17:54;-2.30;98.90
20446;DHT22;10382;49.140;9.234;2024-01-10T02:20:23;-2.40;98.90
20446;DHT22;10382;49.140;9.234;2024-01-10T02:22:50;-2.50;99.30
20446;DHT22;10382;49.140;9.234;2024-01-10T02:25:18;-2.40;99.60
20446;DHT22;10382;49.140;9.234;2024-01-10T02:27:46;-2.30;99.60
20446;DHT22;10382;49.140;9.234;2024-01-10T02:30:14;-2.20;99.70
20446;DHT22;10382;49.140;9.234;2024-01-10T02:32:41;-2.10;99.50
20446;DHT22;10382;49.140;9.234;2024-01-10T02:35:08;-2.00;99.20
20446;DHT22;10382;49.140;9.234;2024-01-10T02:37:35;-1.90;98.90
20446;DHT22;10382;49.140;9.234;2024-01-10T02:40:02;-1.70;98.20
20446;DHT22;10382;49.140;9.234;2024-01-10T02:42:33;-1.80;97.90
20446;DHT22;10382;49.140;9.234;2024-01-10T02:45:00;-1.90;98.10
20446;DHT22;10382;49.140;9.234;2024-01-10T02:47:27;-2.00;98.40
20446;DHT22;10382;49.140;9.234;2024-01-10T02:49:54;-2.10;98.50
20446;DHT22;10382;49.140;9.234;2024-01-10T02:52:21;-2.10;98.40
20446;DHT22;10382;49.140;9.234;2024-01-10T02:54:48;-2.20;98.40
20446;DHT22;10382;49.140;9.234;2024-01-10T02:57:15;-2.20;98.70
20446;DHT22;10382;49.140;9.234;2024-01-10T02:59:43;-2.30;98.60
20446;DHT22;10382;49.140;9.234;2024-01-10T03:02:10;-2.30;98.90
20446;DHT22;10382;49.140;9.234;2024-01-10T03:04:37;-2.50;99.30
20446;DHT22;10382;49.140;9.234;2024-01-10T03:07:04;-2.60;99.90
20446;DHT22;10382;49.140;9.234;2024-01-10T03:09:31;-2.70;99.90
20446;DHT22;10382;49.140;9.234;2024-01-10T03:11:58;-2.80;99.90
20446;DHT22;10382;49.140;9.234;2024-01-10T03:14:25;-2.80;99.90
20446;DHT22;10382;49.140;9.234;2024-01-10T03:16:53;-2.80;99.90
20446;DHT22;10382;49.140;9.234;2024-01-10T03:19:20;-2.80;99.90
20446;DHT22;10382;49.140;9.234;2024-01-10T03:21:48;-2.70;99.90
20446;DHT22;10382;49.140;9.234;2024-01-10T03:24:13;-2.70;99.90
20446;DHT22;10382;49.140;9.234;2024-01-10T03:26:40;-2.70;99.90
20446;DHT22;10382;49.140;9.234;2024-01-10T03:29:07;-2.80;99.90
20446;DHT22;10382;49.140;9.234;2024-01-10T03:31:34;-2.80;99.90
20446;DHT22;10382;49.140;9.234;2024-01-10T03:34:03;-2.80;99.90
20446;DHT22;10382;49.140;9.234;2024-01-10T03:36:30;-2.90;99.90
20446;DHT22;10382;49.140;9.234;2024-01-10T03:38:57;-2.90;99.90
20446;DHT22;10382;49.140;9.234;2024-01-10T03:41:23;-2.80;99.90
20446;DHT22;10382;49.140;9.234;2024-01-10T03:43:50;-2.80;99.90
20446;DHT22;10382;49.140;9.234;2024-01-10T03:46:17;-2.60;99.90
20446;DHT22;10382;49.140;9.234;2024-01-10T03:48:44;-2.60;99.90
20446;DHT22;10382;49.140;9.234;2024-01-10T03:51:16;-2.60;99.90
20446;DHT22;10382;49.140;9.234;2024-01-10T03:53:43;-2.60;99.90
20446;DHT22;10382;49.140;9.234;2024-01-10T03:56:10;-2.60;99.90
20446;DHT22;10382;49.140;9.234;2024-01-10T03:58:38;-2.70;99.90
20446;DHT22;10382;49.140;9.234;2024-01-10T04:01:05;-2.90;99.90
20446;DHT22;10382;49.140;9.234;2024-01-10T04:03:33;-2.90;99.90
20446;DHT22;10382;49.140;9.234;2024-01-10T04:06:00;-2.70;99.90
20446;DHT22;10382;49.140;9.234;2024-01-10T04:08:28;-2.70;99.90
20446;DHT22;10382;49.140;9.234;2024-01-10T04:10:55;-2.70;99.90
20446;DHT22;10382;49.140;9.234;2024-01-10T04:13:23;-2.60;99.90
20446;DHT22;10382;49.140;9.234;2024-01-10T04:15:50;-2.50;99.90
20446;DHT22;10382;49.140;9.234;2024-01-10T04:18:17;-2.50;99.90
20446;DHT22;10382;49.140;9.234;2024-01-10T04:20:43;-2.50;99.90
20446;DHT22;10382;49.140;9.234;2024-01-10T04:23:10;-2.60;99.90
20446;DHT22;10382;49.140;9.234;2024-01-10T04:25:39;-2.70;99.90
20446;DHT22;10382;49.140;9.234;2024-01-10T04:28:06;-2.80;99.90
20446;DHT22;10382;49.140;9.234;2024-01-10T04:30:33;-2.70;99.90
20446;DHT22;10382;49.140;9.234;2024-01-10T04:32:59;-2.70;99.90
20446;DHT22;10382;49.140;9.234;2024-01-10T04:35:26;-2.70;99.90
20446;DHT22;10382;49.140;9.234;2024-01-10T04:37:53;-2.80;99.90
20446;DHT22;10382;49.140;9.234;2024-01-10T04:40:20;-2.80;99.90
20446;DHT22;10382;49.140;9.234;2024-01-10T04:42:48;-2.70;99.90
20446;DHT22;10382;49.140;9.234;2024-01-10T04:45:15;-2.50;99.90
20446;DHT22;10382;49.140;9.234;2024-01-10T04:47:42;-2.50;99.90
20446;DHT22;10382;49.140;9.234;2024-01-10T04:50:10;-2.50;99.90
20446;DHT22;10382;49.140;9.234;2024-01-10T04:52:37;-2.50;99.90
20446;DHT22;10382;49.140;9.234;2024-01-10T04:55:05;-2.40;99.90
20446;DHT22;10382;49.140;9.234;2024-01-10T04:57:33;-2.30;99.90
20446;DHT22;10382;49.140;9.234;2024-01-10T05:00:02;-2.20;99.90
20446;DHT22;10382;49.140;9.234;2024-01-10T05:02:29;-2.00;99.90
20446;DHT22;10382;49.140;9.234;2024-01-10T05:04:55;-1.80;99.90
20446;DHT22;10382;49.140;9.234;2024-01-10T05:07:22;-1.70;99.90
20446;DHT22;10382;49.140;9.234;2024-01-10T05:09:49;-1.50;99.90
20446;DHT22;10382;49.140;9.234;2024-01-10T05:12:16;-1.50;99.90
20446;DHT22;10382;49.140;9.234;2024-01-10T05:14:43;-1.60;99.90
20446;DHT22;10382;49.140;9.234;2024-01-10T05:17:11;-1.70;99.90
20446;DHT22;10382;49.140;9.234;2024-01-10T05:19:38;-1.70;99.90
20446;DHT22;10382;49.140;9.234;2024-01-10T05:22:05;-1.90;99.90
20446;DHT22;10382;49.140;9.234;2024-01-10T05:24:31;-1.90;99.90
20446;DHT22;10382;49.140;9.234;2024-01-10T05:26:58;-1.90;99.90
20446;DHT22;10382;49.140;9.234;2024-01-10T05:29:25;-2.00;99.90
20446;DHT22;10382;49.140;9.234;2024-01-10T05:31:53;-2.10;99.90
20446;DHT22;10382;49.140;9.234;2024-01-10T05:34:21;-2.10;99.90
20446;DHT22;10382;49.140;9.234;2024-01-10T05:36:48;-2.20;99.90
20446;DHT22;10382;49.140;9.234;2024-01-10T05:39:15;-2.20;99.90
20446;DHT22;10382;49.140;9.234;2024-01-10T05:41:42;-1.90;99.90
20446;DHT22;10382;49.140;9.234;2024-01-10T05:44:09;-1.80;99.90
20446;DHT22;10382;49.140;9.234;2024-01-10T05:46:36;-1.60;99.90
20446;DHT22;10382;49.140;9.234;2024-01-10T05:49:03;-1.70;99.90
20446;DHT22;10382;49.140;9.234;2024-01-10T05:51:32;-1.60;99.90
20446;DHT22;10382;49.140;9.234;2024-01-10T05:53:59;-1.60;99.90
20446;DHT22;10382;49.140;9.234;2024-01-10T05:56:26;-1.50;99.90
20446;DHT22;10382;49.140;9.234;2024-01-10T05:58:53;-1.40;99.90
20446;DHT22;10382;49.140;9.234;2024-01-10T06:01:20;-1.20;99.90
20446;DHT22;10382;49.140;9.234;2024-01-10T06:03:47;-1.20;99.90
20446;DHT22;10382;49.140;9.234;2024-01-10T06:06:14;-1.20;99.90
20446;DHT22;10382;49.140;9.234;2024-01-10T06:08:42;-1.20;99.90
20446;DHT22;10382;49.140;9.234;2024-01-10T06:11:10;-1.30;99.90
20446;DHT22;10382;49.140;9.234;2024-01-10T06:13:37;-1.40;99.90
20446;DHT22;10382;49.140;9.234;2024-01-10T06:16:04;-1.30;99.90
20446;DHT22;10382;49.140;9.234;2024-01-10T06:18:31;-1.10;99.90
20446;DHT22;10382;49.140;9.234;2024-01-10T06:20:57;-1.10;99.90
20446;DHT22;10382;49.140;9.234;2024-01-10T06:23:24;-1.00;99.90
20446;DHT22;10382;49.140;9.234;2024-01-10T06:25:52;-0.80;99.90
20446;DHT22;10382;49.140;9.234;2024-01-10T06:28:20;-0.80;99.90
20446;DHT22;10382;49.140;9.234;2024-01-10T06:30:47;-0.70;99.90
20446;DHT22;10382;49.140;9.234;2024-01-10T06:33:14;-0.60;99.90
20446;DHT22;10382;49.140;9.234;2024-01-10T06:35:41;-0.60;99.90
20446;DHT22;10382;49.140;9.234;2024-01-10T06:38:09;-0.60;99.90
20446;DHT22;10382;49.140;9.234;2024-01-10T06:40:35;-0.70;99.90
20446;DHT22;10382;49.140;9.234;2024-01-10T06:43:04;-0.60;99.90
20446;DHT22;10382;49.140;9.234;2024-01-10T06:45:34;-0.60;99.90
20446;DHT22;10382;49.140;9.234;2024-01-10T06:48:01;-0.90;99.90
20446;DHT22;10382;49.140;9.234;2024-01-10T06:50:27;-1.00;99.90
20446;DHT22;10382;49.140;9.234;2024-01-10T06:52:56;-1.20;99.90
20446;DHT22;10382;49.140;9.234;2024-01-10T06:55:22;-1.20;99.90
20446;DHT22;10382;49.140;9.234;2024-01-10T06:57:50;-1.20;99.90
20446;DHT22;10382;49.140;9.234;2024-01-10T07:00:20;-1.30;99.90
20446;DHT22;10382;49.140;9.234;2024-01-10T07:02:47;-1.40;99.90
20446;DHT22;10382;49.140;9.234;2024-01-10T07:05:15;-1.30;99.90
20446;DHT22;10382;49.140;9.234;2024-01-10T07:07:42;-1.30;99.90
20446;DHT22;10382;49.140;9.234;2024-01-10T07:10:09;-1.30;99.90
20446;DHT22;10382;49.140;9.234;2024-01-10T07:12:37;-1.30;99.90
20446;DHT22;10382;49.140;9.234;2024-01-10T07:15:05;-1.40;99.90
20446;DHT22;10382;49.140;9.234;2024-01-10T07:17:33;-1.40;99.90
20446;DHT22;10382;49.140;9.234;2024-01-10T07:20:00;-1.40;99.90
20446;DHT22;10382;49.140;9.234;2024-01-10T07:22:28;-1.50;99.90
20446;DHT22;10382;49.140;9.234;2024-01-10T07:24:55;-1.70;99.90
20446;DHT22;10382;49.140;9.234;2024-01-10T07:27:22;-1.70;99.90
20446;DHT22;10382;49.140;9.234;2024-01-10T07:29:49;-1.80;99.90
20446;DHT22;10382;49.140;9.234;2024-01-10T07:32:16;-1.90;99.90
20446;DHT22;10382;49.140;9.234;2024-01-10T07:34:46;-1.90;99.90
20446;DHT22;10382;49.140;9.234;2024-01-10T07:37:13;-1.80;99.90
20446;DHT22;10382;49.140;9.234;2024-01-10T07:39:42;-1.70;99.90
20446;DHT22;10382;49.140;9.234;2024-01-10T07:42:09;-1.60;99.90
20446;DHT22;10382;49.140;9.234;2024-01-10T07:44:35;-1.40;99.90
20446;DHT22;10382;49.140;9.234;2024-01-10T07:47:03;-1.20;99.90
20446;DHT22;10382;49.140;9.234;2024-01-10T07:49:30;-1.00;99.90
20446;DHT22;10382;49.140;9.234;2024-01-10T07:51:59;-1.00;99.90
20446;DHT22;10382;49.140;9.234;2024-01-10T07:54:26;-1.00;99.90
20446;DHT22;10382;49.140;9.234;2024-01-10T07:56:52;-1.20;99.90
20446;DHT22;10382;49.140;9.234;2024-01-10T07:59:20;-1.30;99.90
20446;DHT22;10382;49.140;9.234;2024-01-10T08:01:55;-1.20;99.90
20446;DHT22;10382;49.140;9.234;2024-01-10T08:04:24;-1.20;99.90
20446;DHT22;10382;49.140;9.234;2024-01-10T08:06:51;-1.00;99.90
20446;DHT22;10382;49.140;9.234;2024-01-10T08:09:19;-0.80;99.90
20446;DHT22;10382;49.140;9.234;2024-01-10T08:11:46;-0.50;99.90
20446;DHT22;10382;49.140;9.234;2024-01-10T08:14:13;-0.30;99.90
20446;DHT22;10382;49.140;9.234;2024-01-10T08:16:40;-0.10;99.90
20446;DHT22;10382;49.140;9.234;2024-01-10T08:19:07;0.00;99.90
20446;DHT22;10382;49.140;9.234;2024-01-10T08:21:35;0.20;99.90
20446;DHT22;10382;49.140;9.234;2024-01-10T08:24:03;0.40;99.90
20446;DHT22;10382;49.140;9.234;2024-01-10T08:26:31;0.50;99.90
20446;DHT22;10382;49.140;9.234;2024-01-10T08:28:57;0.50;99.90
20446;DHT22;10382;49.140;9.234;2024-01-10T08:31:24;0.40;99.90
20446;DHT22;10382;49.140;9.234;2024-01-10T08:33:52;0.40;99.90
20446;DHT22;10382;49.140;9.234;2024-01-10T08:36:19;0.20;99.90
20446;DHT22;10382;49.140;9.234;2024-01-10T08:38:46;0.10;99.90
20446;DHT22;10382;49.140;9.234;2024-01-10T08:41:14;-0.10;99.90
20446;DHT22;10382;49.140;9.234;2024-01-10T08:43:42;-0.30;99.90
20446;DHT22;10382;49.140;9.234;2024-01-10T08:46:09;-0.10;99.90
20446;DHT22;10382;49.140;9.234;2024-01-10T08:48:36;0.00;99.90
20446;DHT22;10382;49.140;9.234;2024-01-10T08:51:03;-0.10;99.90
20446;DHT22;10382;49.140;9.234;2024-01-10T08:53:31;-0.10;99.90
20446;DHT22;10382;49.140;9.234;2024-01-10T08:55:58;0.10;99.90
20446;DHT22;10382;49.140;9.234;2024-01-10T08:58:25;0.20;99.90
20446;DHT22;10382;49.140;9.234;2024-01-10T09:00:53;0.30;99.90
20446;DHT22;10382;49.140;9.234;2024-01-10T09:03:20;0.40;99.90
20446;DHT22;10382;49.140;9.234;2024-01-10T09:05:47;0.30;99.90
20446;DHT22;10382;49.140;9.234;2024-01-10T09:08:14;0.10;99.90
20446;DHT22;10382;49.140;9.234;2024-01-10T09:10:41;0.10;99.90
20446;DHT22;10382;49.140;9.234;2024-01-10T09:13:08;0.40;99.90
20446;DHT22;10382;49.140;9.234;2024-01-10T09:15:35;0.90;99.90
20446;DHT22;10382;49.140;9.234;2024-01-10T09:18:04;1.80;99.90
20446;DHT22;10382;49.140;9.234;2024-01-10T09:20:31;2.70;97.10
20446;DHT22;10382;49.140;9.234;2024-01-10T09:22:58;3.20;94.60
20446;DHT22;10382;49.140;9.234;2024-01-10T09:25:25;3.60;91.50
20446;DHT22;10382;49.140;9.234;2024-01-10T09:27:52;3.80;90.60
20446;DHT22;10382;49.140;9.234;2024-01-10T09:30:19;3.80;87.30
20446;DHT22;10382;49.140;9.234;2024-01-10T09:32:46;4.30;86.50
20446;DHT22;10382;49.140;9.234;2024-01-10T09:35:15;4.80;83.80
20446;DHT22;10382;49.140;9.234;2024-01-10T09:37:43;4.80;79.90
20446;DHT22;10382;49.140;9.234;2024-01-10T09:40:14;4.90;78.90
20446;DHT22;10382;49.140;9.234;2024-01-10T09:42:41;4.80;77.60
20446;DHT22;10382;49.140;9.234;2024-01-10T09:45:10;4.30;76.10
20446;DHT22;10382;49.140;9.234;2024-01-10T09:47:39;4.00;77.50
20446;DHT22;10382;49.140;9.234;2024-01-10T09:50:08;3.00;78.80
20446;DHT22;10382;49.140;9.234;2024-01-10T09:52:42;2.30;82.70
20446;DHT22;10382;49.140;9.234;2024-01-10T09:55:13;1.50;86.10
20446;DHT22;10382;49.140;9.234;2024-01-10T09:57:42;1.30;90.10
20446;DHT22;10382;49.140;9.234;2024-01-10T10:00:11;1.40;91.10
20446;DHT22;10382;49.140;9.234;2024-01-10T10:02:38;1.90;91.40
20446;DHT22;10382;49.140;9.234;2024-01-10T10:05:08;2.30;90.60
20446;DHT22;10382;49.140;9.234;2024-01-10T10:07:45;3.10;89.50
20446;DHT22;10382;49.140;9.234;2024-01-10T10:10:12;4.60;87.00
20446;DHT22;10382;49.140;9.234;2024-01-10T10:12:44;6.00;79.90
20446;DHT22;10382;49.140;9.234;2024-01-10T10:15:13;7.50;71.00
20446;DHT22;10382;49.140;9.234;2024-01-10T10:17:40;8.60;65.40
20446;DHT22;10382;49.140;9.234;2024-01-10T10:20:13;10.10;58.90
20446;DHT22;10382;49.140;9.234;2024-01-10T10:22:41;11.40;51.70
20446;DHT22;10382;49.140;9.234;2024-01-10T10:25:27;12.50;99.90
20446;DHT22;10382;49.140;9.234;2024-01-10T10:27:55;13.50;99.90
20446;DHT22;10382;49.140;9.234;2024-01-10T10:30:22;13.40;99.90
20446;DHT22;10382;49.140;9.234;2024-01-10T10:32:48;13.10;99.90
20446;DHT22;10382;49.140;9.234;2024-01-10T10:35:15;13.90;99.90
20446;DHT22;10382;49.140;9.234;2024-01-10T10:37:42;14.10;99.90
20446;DHT22;10382;49.140;9.234;2024-01-10T10:40:10;13.50;99.90
20446;DHT22;10382;49.140;9.234;2024-01-10T10:42:44;13.50;99.90
20446;DHT22;10382;49.140;9.234;2024-01-10T10:45:15;13.50;99.90
20446;DHT22;10382;49.140;9.234;2024-01-10T10:47:44;13.40;99.90
20446;DHT22;10382;49.140;9.234;2024-01-10T10:50:20;12.70;99.90
20446;DHT22;10382;49.140;9.234;2024-01-10T10:52:48;11.60;99.90
20446;DHT22;10382;49.140;9.234;2024-01-10T10:55:17;10.40;99.90
20446;DHT22;10382;49.140;9.234;2024-01-10T10:57:46;9.40;99.90
20446;DHT22;10382;49.140;9.234;2024-01-10T11:00:15;8.70;99.90
20446;DHT22;10382;49.140;9.234;2024-01-10T11:02:42;7.90;99.90
20446;DHT22;10382;49.140;9.234;2024-01-10T11:05:10;7.20;99.90
20446;DHT22;10382;49.140;9.234;2024-01-10T11:07:37;6.60;99.90
20446;DHT22;10382;49.140;9.234;2024-01-10T11:10:08;6.70;99.90
20446;DHT22;10382;49.140;9.234;2024-01-10T11:12:53;8.00;99.90
20446;DHT22;10382;49.140;9.234;2024-01-10T11:15:34;9.60;99.90
20446;DHT22;10382;49.140;9.234;2024-01-10T11:18:32;11.20;99.90
20446;DHT22;10382;49.140;9.234;2024-01-10T11:21:15;12.50;99.90
20446;DHT22;10382;49.140;9.234;2024-01-10T11:23:47;13.60;99.90
20446;DHT22;10382;49.140;9.234;2024-01-10T11:26:15;15.00;99.90
20446;DHT22;10382;49.140;9.234;2024-01-10T11:28:45;14.90;99.90
20446;DHT22;10382;49.140;9.234;2024-01-10T11:31:14;16.00;99.90
20446;DHT22;10382;49.140;9.234;2024-01-10T11:33:42;16.90;99.90
20446;DHT22;10382;49.140;9.234;2024-01-10T11:36:12;16.90;99.90
20446;DHT22;10382;49.140;9.234;2024-01-10T11:38:41;17.90;99.90
20446;DHT22;10382;49.140;9.234;2024-01-10T11:41:10;18.40;99.90
20446;DHT22;10382;49.140;9.234;2024-01-10T11:43:38;19.10;99.90
20446;DHT22;10382;49.140;9.234;2024-01-10T11:46:07;19.60;99.90
20446;DHT22;10382;49.140;9.234;2024-01-10T11:48:37;19.50;99.90
20446;DHT22;10382;49.140;9.234;2024-01-10T11:51:04;19.30;99.90
20446;DHT22;10382;49.140;9.234;2024-01-10T11:53:39;19.10;99.90
20446;DHT22;10382;49.140;9.234;2024-01-10T11:56:11;19.30;99.90
20446;DHT22;10382;49.140;9.234;2024-01-10T11:58:53;19.20;99.90
20446;DHT22;10382;49.140;9.234;2024-01-10T12:01:22;19.50;99.90
20446;DHT22;10382;49.140;9.234;2024-01-10T12:03:52;18.80;99.90
20446;DHT22;10382;49.140;9.234;2024-01-10T12:06:21;18.30;99.90
20446;DHT22;10382;49.140;9.234;2024-01-10T12:08:48;17.10;99.90
20446;DHT22;10382;49.140;9.234;2024-01-10T12:11:15;17.50;99.90
20446;DHT22;10382;49.140;9.234;2024-01-10T12:13:43;17.80;99.90
20446;DHT22;10382;49.140;9.234;2024-01-10T12:16:10;18.00;99.90
20446;DHT22;10382;49.140;9.234;2024-01-10T12:18:39;18.50;99.90
20446;DHT22;10382;49.140;9.234;2024-01-10T12:21:06;18.80;99.90
20446;DHT22;10382;49.140;9.234;2024-01-10T12:23:34;19.20;99.90
20446;DHT22;10382;49.140;9.234;2024-01-10T12:26:01;19.70;99.90
20446;DHT22;10382;49.140;9.234;2024-01-10T12:28:30;20.20;99.90
20446;DHT22;10382;49.140;9.234;2024-01-10T12:30:57;19.90;99.90
20446;DHT22;10382;49.140;9.234;2024-01-10T12:33:24;18.30;99.90
20446;DHT22;10382;49.140;9.234;2024-01-10T12:36:09;16.30;99.90
20446;DHT22;10382;49.140;9.234;2024-01-10T12:38:38;14.20;99.90
20446;DHT22;10382;49.140;9.234;2024-01-10T12:41:05;12.90;99.90
20446;DHT22;10382;49.140;9.234;2024-01-10T12:43:34;12.00;99.90
20446;DHT22;10382;49.140;9.234;2024-01-10T12:46:05;11.60;99.90
20446;DHT22;10382;49.140;9.234;2024-01-10T12:48:32;12.20;99.90
20446;DHT22;10382;49.140;9.234;2024-01-10T12:51:02;13.20;99.90
20446;DHT22;10382;49.140;9.234;2024-01-10T12:53:34;14.60;99.90
20446;DHT22;10382;49.140;9.234;2024-01-10T12:56:01;15.70;99.90
20446;DHT22;10382;49.140;9.234;2024-01-10T12:58:28;17.10;99.90
20446;DHT22;10382;49.140;9.234;2024-01-10T13:00:55;18.20;99.90
20446;DHT22;10382;49.140;9.234;2024-01-10T13:03:22;18.50;99.90
20446;DHT22;10382;49.140;9.234;2024-01-10T13:05:49;18.70;99.90
20446;DHT22;10382;49.140;9.234;2024-01-10T13:08:17;18.90;99.90
20446;DHT22;10382;49.140;9.234;2024-01-10T13:10:46;18.50;99.90
20446;DHT22;10382;49.140;9.234;2024-01-10T13:13:13;17.50;99.90
20446;DHT22;10382;49.140;9.234;2024-01-10T13:15:41;17.60;99.90
20446;DHT22;10382;49.140;9.234;2024-01-10T13:18:08;18.10;99.90
20446;DHT22;10382;49.140;9.234;2024-01-10T13:20:35;18.60;99.90
20446;DHT22;10382;49.140;9.234;2024-01-10T13:23:03;19.30;99.90
20446;DHT22;10382;49.140;9.234;2024-01-10T13:25:30;18.20;99.90
20446;DHT22;10382;49.140;9.234;2024-01-10T13:27:58;18.50;99.90
20446;DHT22;10382;49.140;9.234;2024-01-10T13:30:26;18.90;99.90
20446;DHT22;10382;49.140;9.234;2024-01-10T13:32:53;19.50;99.90
20446;DHT22;10382;49.140;9.234;2024-01-10T13:35:20;20.40;99.90
20446;DHT22;10382;49.140;9.234;2024-01-10T13:37:48;20.50;99.90
20446;DHT22;10382;49.140;9.234;2024-01-10T13:40:15;21.10;99.90
20446;DHT22;10382;49.140;9.234;2024-01-10T13:42:42;21.10;99.90
20446;DHT22;10382;49.140;9.234;2024-01-10T13:45:11;20.80;99.90
20446;DHT22;10382;49.140;9.234;2024-01-10T13:47:38;20.90;99.90
20446;DHT22;10382;49.140;9.234;2024-01-10T13:50:06;20.50;99.90
20446;DHT22;10382;49.140;9.234;2024-01-10T13:52:34;19.80;99.90
20446;DHT22;10382;49.140;9.234;2024-01-10T13:55:01;19.10;99.90
20446;DHT22;10382;49.140;9.234;2024-01-10T13:57:30;18.60;99.90
20446;DHT22;10382;49.140;9.234;2024-01-10T13:59:58;17.40;99.90
20446;DHT22;10382;49.140;9.234;2024-01-10T14:02:26;15.90;99.90
20446;DHT22;10382;49.140;9.234;2024-01-10T14:04:53;14.80;99.90
20446;DHT22;10382;49.140;9.234;2024-01-10T14:07:23;14.60;99.90
20446;DHT22;10382;49.140;9.234;2024-01-10T14:09:50;15.10;99.90
20446;DHT22;10382;49.140;9.234;2024-01-10T14:12:17;15.40;99.90
20446;DHT22;10382;49.140;9.234;2024-01-10T14:14:44;15.70;99.90
20446;DHT22;10382;49.140;9.234;2024-01-10T14:17:11;15.70;99.90
20446;DHT22;10382;49.140;9.234;2024-01-10T14:19:39;14.90;99.90
20446;DHT22;10382;49.140;9.234;2024-01-10T14:22:06;14.10;99.90
20446;DHT22;10382;49.140;9.234;2024-01-10T14:24:34;13.50;99.90
20446;DHT22;10382;49.140;9.234;2024-01-10T14:27:00;12.80;99.90
20446;DHT22;10382;49.140;9.234;2024-01-10T14:29:27;12.40;99.90
20446;DHT22;10382;49.140;9.234;2024-01-10T14:31:54;11.90;99.90
20446;DHT22;10382;49.140;9.234;2024-01-10T14:34:21;11.20;99.90
20446;DHT22;10382;49.140;9.234;2024-01-10T14:36:49;10.30;99.90
20446;DHT22;10382;49.140;9.234;2024-01-10T14:39:16;9.70;99.90
20446;DHT22;10382;49.140;9.234;2024-01-10T14:41:43;8.90;99.90
20446;DHT22;10382;49.140;9.234;2024-01-10T14:44:10;8.40;99.90
20446;DHT22;10382;49.140;9.234;2024-01-10T14:46:37;8.10;99.90
20446;DHT22;10382;49.140;9.234;2024-01-10T14:49:05;7.90;99.90
20446;DHT22;10382;49.140;9.234;2024-01-10T14:51:32;8.30;99.90
20446;DHT22;10382;49.140;9.234;2024-01-10T14:54:01;8.90;99.90
20446;DHT22;10382;49.140;9.234;2024-01-10T14:56:29;9.40;99.90
20446;DHT22;10382;49.140;9.234;2024-01-10T14:58:56;9.80;99.90
20446;DHT22;10382;49.140;9.234;2024-01-10T15:01:23;9.50;99.90
20446;DHT22;10382;49.140;9.234;2024-01-10T15:03:49;9.00;99.90
20446;DHT22;10382;49.140;9.234;2024-01-10T15:06:18;8.40;99.90
20446;DHT22;10382;49.140;9.234;2024-01-10T15:08:45;7.80;99.90
20446;DHT22;10382;49.140;9.234;2024-01-10T15:11:14;7.30;99.90
20446;DHT22;10382;49.140;9.234;2024-01-10T15:13:41;6.90;99.90
20446;DHT22;10382;49.140;9.234;2024-01-10T15:16:08;6.50;99.90
20446;DHT22;10382;49.140;9.234;2024-01-10T15:18:36;6.20;99.90
20446;DHT22;10382;49.140;9.234;2024-01-10T15:21:03;5.90;99.90
20446;DHT22;10382;49.140;9.234;2024-01-10T15:23:31;5.70;99.90
20446;DHT22;10382;49.140;9.234;2024-01-10T15:25:57;5.30;99.90
20446;DHT22;10382;49.140;9.234;2024-01-10T15:28:26;5.10;99.90
20446;DHT22;10382;49.140;9.234;2024-01-10T15:30:54;4.90;99.90
20446;DHT22;10382;49.140;9.234;2024-01-10T15:33:20;4.60;99.40
20446;DHT22;10382;49.140;9.234;2024-01-10T15:35:47;4.50;99.40
20446;DHT22;10382;49.140;9.234;2024-01-10T15:38:14;4.40;99.80